sensor_id;sensor_type;location;lat;lon;timestamp;P1;durP1;ratioP1;P2;durP2;ratioP2
33279;SDS011;20403;43.114;12.434;2023-02-01T00:00:17;19.42;;;9.63;;
33279;SDS011;20403;43.114;12.434;2023-02-01T00:02:43;18.80;;;8.82;;
33279;SDS011;20403;43.114;12.434;2023-02-01T00:05:08;18.25;;;9.57;;
33279;SDS011;20403;43.114;12.434;2023-02-01T00:07:35;18.48;;;9.40;;
33279;SDS011;20403;43.114;12.434;2023-02-01T00:10:01;27.13;;;10.25;;
33279;SDS011;20403;43.114;12.434;2023-02-01T00:12:28;16.58;;;8.65;;
33279;SDS011;20403;43.114;12.434;2023-02-01T00:14:54;16.17;;;9.13;;
33279;SDS011;20403;43.114;12.434;2023-02-01T00:17:19;18.42;;;9.32;;
33279;SDS011;20403;43.114;12.434;2023-02-01T00:19:45;17.23;;;9.15;;
33279;SDS011;20403;43.114;12.434;2023-02-01T00:22:10;16.23;;;8.65;;
33279;SDS011;20403;43.114;12.434;2023-02-01T00:24:35;14.73;;;7.55;;
33279;SDS011;20403;43.114;12.434;2023-02-01T00:27:01;20.05;;;8.13;;
33279;SDS011;20403;43.114;12.434;2023-02-01T00:29:26;22.90;;;8.48;;
33279;SDS011;20403;43.114;12.434;2023-02-01T00:31:51;17.42;;;8.05;;
33279;SDS011;20403;43.114;12.434;2023-02-01T00:34:17;14.57;;;8.35;;
33279;SDS011;20403;43.114;12.434;2023-02-01T00:36:44;17.17;;;8.50;;
33279;SDS011;20403;43.114;12.434;2023-02-01T00:39:10;18.10;;;8.95;;
33279;SDS011;20403;43.114;12.434;2023-02-01T00:41:36;20.00;;;8.57;;
33279;SDS011;20403;43.114;12.434;2023-02-01T00:44:02;18.85;;;9.77;;
33279;SDS011;20403;43.114;12.434;2023-02-01T00:46:28;25.77;;;12.90;;
33279;SDS011;20403;43.114;12.434;2023-02-01T00:48:53;23.63;;;12.05;;
33279;SDS011;20403;43.114;12.434;2023-02-01T00:51:20;25.10;;;12.63;;
33279;SDS011;20403;43.114;12.434;2023-02-01T00:53:47;25.33;;;12.68;;
33279;SDS011;20403;43.114;12.434;2023-02-01T00:56:12;22.00;;;12.23;;
33279;SDS011;20403;43.114;12.434;2023-02-01T00:58:38;27.10;;;12.30;;
33279;SDS011;20403;43.114;12.434;2023-02-01T01:01:05;21.85;;;10.57;;
33279;SDS011;20403;43.114;12.434;2023-02-01T01:03:36;27.40;;;13.10;;
33279;SDS011;20403;43.114;12.434;2023-02-01T01:06:13;23.48;;;11.23;;
33279;SDS011;20403;43.114;12.434;2023-02-01T01:08:41;20.98;;;10.80;;
33279;SDS011;20403;43.114;12.434;2023-02-01T01:11:08;21.77;;;11.32;;
33279;SDS011;20403;43.114;12.434;2023-02-01T01:13:35;22.48;;;11.70;;
33279;SDS011;20403;43.114;12.434;2023-02-01T01:16:01;22.15;;;11.18;;
33279;SDS011;20403;43.114;12.434;2023-02-01T01:18:29;21.73;;;11.32;;
33279;SDS011;20403;43.114;12.434;2023-02-01T01:20:56;21.17;;;11.32;;
33279;SDS011;20403;43.114;12.434;2023-02-01T01:23:22;25.15;;;11.18;;
33279;SDS011;20403;43.114;12.434;2023-02-01T01:25:47;20.90;;;10.65;;
33279;SDS011;20403;43.114;12.434;2023-02-01T01:28:12;21.45;;;11.55;;
33279;SDS011;20403;43.114;12.434;2023-02-01T01:30:38;21.73;;;11.35;;
33279;SDS011;20403;43.114;12.434;2023-02-01T01:33:03;22.95;;;11.02;;
33279;SDS011;20403;43.114;12.434;2023-02-01T01:35:29;19.15;;;10.38;;
33279;SDS011;20403;43.114;12.434;2023-02-01T01:37:56;24.23;;;11.02;;
33279;SDS011;20403;43.114;12.434;2023-02-01T01:40:22;22.80;;;10.88;;
33279;SDS011;20403;43.114;12.434;2023-02-01T01:42:47;18.27;;;10.68;;
33279;SDS011;20403;43.114;12.434;2023-02-01T01:47:49;21.05;;;11.18;;
33279;SDS011;20403;43.114;12.434;2023-02-01T01:50:18;20.42;;;10.77;;
33279;SDS011;20403;43.114;12.434;2023-02-01T01:52:48;18.55;;;10.60;;
33279;SDS011;20403;43.114;12.434;2023-02-01T01:55:16;24.75;;;12.77;;
33279;SDS011;20403;43.114;12.434;2023-02-01T01:57:46;22.42;;;10.32;;
33279;SDS011;20403;43.114;12.434;2023-02-01T02:00:18;17.52;;;10.65;;
33279;SDS011;20403;43.114;12.434;2023-02-01T02:02:47;19.50;;;10.52;;
33279;SDS011;20403;43.114;12.434;2023-02-01T02:05:18;20.73;;;10.68;;
33279;SDS011;20403;43.114;12.434;2023-02-01T02:07:46;21.80;;;10.90;;
33279;SDS011;20403;43.114;12.434;2023-02-01T02:10:14;22.67;;;11.13;;
33279;SDS011;20403;43.114;12.434;2023-02-01T02:12:41;22.15;;;11.00;;
33279;SDS011;20403;43.114;12.434;2023-02-01T02:15:09;23.70;;;11.10;;
33279;SDS011;20403;43.114;12.434;2023-02-01T02:26:23;18.88;;;10.10;;
33279;SDS011;20403;43.114;12.434;2023-02-01T02:39:36;20.05;;;10.43;;
33279;SDS011;20403;43.114;12.434;2023-02-01T02:47:55;17.02;;;9.30;;
33279;SDS011;20403;43.114;12.434;2023-02-01T02:50:37;20.67;;;11.40;;
33279;SDS011;20403;43.114;12.434;2023-02-01T02:56:20;17.75;;;9.40;;
33279;SDS011;20403;43.114;12.434;2023-02-01T02:59:06;20.10;;;10.05;;
33279;SDS011;20403;43.114;12.434;2023-02-01T03:01:52;20.40;;;10.25;;
33279;SDS011;20403;43.114;12.434;2023-02-01T03:04:37;21.08;;;10.27;;
33279;SDS011;20403;43.114;12.434;2023-02-01T03:08:04;18.20;;;10.30;;
33279;SDS011;20403;43.114;12.434;2023-02-01T03:10:10;17.63;;;9.93;;
33279;SDS011;20403;43.114;12.434;2023-02-01T03:12:48;17.30;;;10.10;;
33279;SDS011;20403;43.114;12.434;2023-02-01T03:15:21;17.38;;;9.80;;
33279;SDS011;20403;43.114;12.434;2023-02-01T03:17:51;20.10;;;11.43;;
33279;SDS011;20403;43.114;12.434;2023-02-01T03:20:20;20.25;;;10.18;;
33279;SDS011;20403;43.114;12.434;2023-02-01T03:22:47;18.52;;;10.07;;
33279;SDS011;20403;43.114;12.434;2023-02-01T03:25:16;21.88;;;10.98;;
33279;SDS011;20403;43.114;12.434;2023-02-01T03:27:48;17.60;;;10.60;;
33279;SDS011;20403;43.114;12.434;2023-02-01T03:30:21;26.30;;;11.80;;
33279;SDS011;20403;43.114;12.434;2023-02-01T03:32:48;21.55;;;10.75;;
33279;SDS011;20403;43.114;12.434;2023-02-01T03:35:30;18.98;;;10.05;;
33279;SDS011;20403;43.114;12.434;2023-02-01T03:38:15;20.27;;;10.65;;
33279;SDS011;20403;43.114;12.434;2023-02-01T03:40:57;22.60;;;10.38;;
33279;SDS011;20403;43.114;12.434;2023-02-01T03:43:26;20.02;;;10.27;;
33279;SDS011;20403;43.114;12.434;2023-02-01T03:46:00;21.42;;;9.77;;
33279;SDS011;20403;43.114;12.434;2023-02-01T03:48:28;17.13;;;9.98;;
33279;SDS011;20403;43.114;12.434;2023-02-01T03:50:55;19.92;;;10.20;;
33279;SDS011;20403;43.114;12.434;2023-02-01T03:53:25;20.00;;;9.90;;
33279;SDS011;20403;43.114;12.434;2023-02-01T03:55:53;19.38;;;10.57;;
33279;SDS011;20403;43.114;12.434;2023-02-01T03:58:20;18.25;;;10.27;;
33279;SDS011;20403;43.114;12.434;2023-02-01T04:00:53;23.23;;;10.30;;
33279;SDS011;20403;43.114;12.434;2023-02-01T04:03:21;18.00;;;9.93;;
33279;SDS011;20403;43.114;12.434;2023-02-01T04:05:47;22.70;;;10.85;;
33279;SDS011;20403;43.114;12.434;2023-02-01T04:08:13;20.75;;;10.15;;
33279;SDS011;20403;43.114;12.434;2023-02-01T04:10:39;18.35;;;9.98;;
33279;SDS011;20403;43.114;12.434;2023-02-01T04:13:04;20.73;;;9.85;;
33279;SDS011;20403;43.114;12.434;2023-02-01T04:15:29;15.95;;;9.82;;
33279;SDS011;20403;43.114;12.434;2023-02-01T04:17:55;16.65;;;9.70;;
33279;SDS011;20403;43.114;12.434;2023-02-01T04:20:20;17.35;;;9.93;;
33279;SDS011;20403;43.114;12.434;2023-02-01T04:22:46;22.67;;;10.13;;
33279;SDS011;20403;43.114;12.434;2023-02-01T04:25:11;29.02;;;10.50;;
33279;SDS011;20403;43.114;12.434;2023-02-01T04:27:36;21.63;;;9.38;;
33279;SDS011;20403;43.114;12.434;2023-02-01T04:30:03;18.13;;;10.10;;
33279;SDS011;20403;43.114;12.434;2023-02-01T04:32:29;20.38;;;10.48;;
33279;SDS011;20403;43.114;12.434;2023-02-01T04:34:54;18.65;;;10.15;;
33279;SDS011;20403;43.114;12.434;2023-02-01T04:37:20;18.58;;;11.07;;
33279;SDS011;20403;43.114;12.434;2023-02-01T04:39:45;18.20;;;10.55;;
33279;SDS011;20403;43.114;12.434;2023-02-01T04:42:10;19.67;;;10.38;;
33279;SDS011;20403;43.114;12.434;2023-02-01T04:44:37;16.55;;;9.80;;
33279;SDS011;20403;43.114;12.434;2023-02-01T04:47:04;16.52;;;10.20;;
33279;SDS011;20403;43.114;12.434;2023-02-01T04:49:30;14.85;;;9.32;;
33279;SDS011;20403;43.114;12.434;2023-02-01T04:51:55;21.17;;;10.02;;
33279;SDS011;20403;43.114;12.434;2023-02-01T04:54:21;20.58;;;10.63;;
33279;SDS011;20403;43.114;12.434;2023-02-01T04:56:46;20.35;;;10.45;;
33279;SDS011;20403;43.114;12.434;2023-02-01T04:59:12;18.98;;;10.48;;
33279;SDS011;20403;43.114;12.434;2023-02-01T05:01:37;22.27;;;10.77;;
33279;SDS011;20403;43.114;12.434;2023-02-01T05:04:03;17.40;;;9.50;;
33279;SDS011;20403;43.114;12.434;2023-02-01T05:06:28;21.30;;;10.70;;
33279;SDS011;20403;43.114;12.434;2023-02-01T05:08:54;18.35;;;10.00;;
33279;SDS011;20403;43.114;12.434;2023-02-01T05:11:19;17.83;;;9.63;;
33279;SDS011;20403;43.114;12.434;2023-02-01T05:14:03;17.85;;;9.32;;
33279;SDS011;20403;43.114;12.434;2023-02-01T05:16:28;15.90;;;9.05;;
33279;SDS011;20403;43.114;12.434;2023-02-01T05:18:54;22.70;;;9.02;;
33279;SDS011;20403;43.114;12.434;2023-02-01T05:21:20;18.58;;;9.35;;
33279;SDS011;20403;43.114;12.434;2023-02-01T05:23:45;18.33;;;9.32;;
33279;SDS011;20403;43.114;12.434;2023-02-01T05:26:29;16.92;;;9.02;;
33279;SDS011;20403;43.114;12.434;2023-02-01T05:28:55;20.60;;;10.13;;
33279;SDS011;20403;43.114;12.434;2023-02-01T05:31:21;16.90;;;9.85;;
33279;SDS011;20403;43.114;12.434;2023-02-01T05:33:47;20.15;;;9.45;;
33279;SDS011;20403;43.114;12.434;2023-02-01T05:36:12;15.63;;;9.68;;
33279;SDS011;20403;43.114;12.434;2023-02-01T05:38:38;22.02;;;10.15;;
33279;SDS011;20403;43.114;12.434;2023-02-01T05:41:03;23.02;;;10.45;;
33279;SDS011;20403;43.114;12.434;2023-02-01T05:43:29;18.20;;;8.98;;
33279;SDS011;20403;43.114;12.434;2023-02-01T05:45:54;18.90;;;9.20;;
33279;SDS011;20403;43.114;12.434;2023-02-01T05:48:20;23.15;;;9.20;;
33279;SDS011;20403;43.114;12.434;2023-02-01T05:50:45;23.23;;;9.35;;
33279;SDS011;20403;43.114;12.434;2023-02-01T05:53:11;16.55;;;9.43;;
33279;SDS011;20403;43.114;12.434;2023-02-01T05:55:37;18.15;;;9.32;;
33279;SDS011;20403;43.114;12.434;2023-02-01T05:58:02;22.08;;;9.57;;
33279;SDS011;20403;43.114;12.434;2023-02-01T06:00:28;15.77;;;9.13;;
33279;SDS011;20403;43.114;12.434;2023-02-01T06:02:54;20.02;;;9.18;;
33279;SDS011;20403;43.114;12.434;2023-02-01T06:05:19;16.67;;;8.70;;
33279;SDS011;20403;43.114;12.434;2023-02-01T06:07:45;15.05;;;8.60;;
33279;SDS011;20403;43.114;12.434;2023-02-01T06:10:10;23.33;;;10.65;;
33279;SDS011;20403;43.114;12.434;2023-02-01T06:12:35;16.65;;;9.15;;
33279;SDS011;20403;43.114;12.434;2023-02-01T06:15:01;17.88;;;9.43;;
33279;SDS011;20403;43.114;12.434;2023-02-01T06:17:27;20.05;;;9.30;;
33279;SDS011;20403;43.114;12.434;2023-02-01T06:19:52;23.67;;;9.43;;
33279;SDS011;20403;43.114;12.434;2023-02-01T06:22:17;16.65;;;8.65;;
33279;SDS011;20403;43.114;12.434;2023-02-01T06:24:43;15.38;;;8.75;;
33279;SDS011;20403;43.114;12.434;2023-02-01T06:27:08;17.40;;;8.10;;
33279;SDS011;20403;43.114;12.434;2023-02-01T06:29:34;19.70;;;8.90;;
33279;SDS011;20403;43.114;12.434;2023-02-01T06:32:00;20.27;;;8.85;;
33279;SDS011;20403;43.114;12.434;2023-02-01T06:34:25;18.80;;;8.48;;
33279;SDS011;20403;43.114;12.434;2023-02-01T06:36:51;17.35;;;9.02;;
33279;SDS011;20403;43.114;12.434;2023-02-01T06:39:16;20.48;;;8.77;;
33279;SDS011;20403;43.114;12.434;2023-02-01T06:41:42;19.55;;;8.85;;
33279;SDS011;20403;43.114;12.434;2023-02-01T06:44:11;33.35;;;9.55;;
33279;SDS011;20403;43.114;12.434;2023-02-01T06:46:36;17.20;;;8.85;;
33279;SDS011;20403;43.114;12.434;2023-02-01T06:49:02;19.45;;;9.35;;
33279;SDS011;20403;43.114;12.434;2023-02-01T06:51:27;26.90;;;10.15;;
33279;SDS011;20403;43.114;12.434;2023-02-01T06:53:54;17.83;;;9.70;;
33279;SDS011;20403;43.114;12.434;2023-02-01T06:56:20;19.00;;;9.48;;
33279;SDS011;20403;43.114;12.434;2023-02-01T06:58:46;19.30;;;9.23;;
33279;SDS011;20403;43.114;12.434;2023-02-01T07:01:12;30.38;;;10.30;;
33279;SDS011;20403;43.114;12.434;2023-02-01T07:03:37;27.38;;;11.65;;
33279;SDS011;20403;43.114;12.434;2023-02-01T07:06:03;26.45;;;11.00;;
33279;SDS011;20403;43.114;12.434;2023-02-01T07:08:30;25.17;;;11.32;;
33279;SDS011;20403;43.114;12.434;2023-02-01T07:11:00;24.63;;;10.10;;
33279;SDS011;20403;43.114;12.434;2023-02-01T07:13:27;25.10;;;10.65;;
33279;SDS011;20403;43.114;12.434;2023-02-01T07:15:52;21.30;;;10.65;;
33279;SDS011;20403;43.114;12.434;2023-02-01T07:18:17;32.47;;;12.95;;
33279;SDS011;20403;43.114;12.434;2023-02-01T07:20:43;35.60;;;11.82;;
33279;SDS011;20403;43.114;12.434;2023-02-01T07:23:14;21.95;;;10.75;;
33279;SDS011;20403;43.114;12.434;2023-02-01T07:25:39;24.52;;;10.80;;
33279;SDS011;20403;43.114;12.434;2023-02-01T07:28:05;21.98;;;11.13;;
33279;SDS011;20403;43.114;12.434;2023-02-01T07:30:30;34.13;;;15.70;;
33279;SDS011;20403;43.114;12.434;2023-02-01T07:32:56;33.08;;;16.95;;
33279;SDS011;20403;43.114;12.434;2023-02-01T07:35:24;35.92;;;16.75;;
33279;SDS011;20403;43.114;12.434;2023-02-01T07:37:49;36.53;;;16.88;;
33279;SDS011;20403;43.114;12.434;2023-02-01T07:40:15;34.22;;;16.33;;
33279;SDS011;20403;43.114;12.434;2023-02-01T07:42:40;32.90;;;15.77;;
33279;SDS011;20403;43.114;12.434;2023-02-01T07:45:06;33.38;;;13.93;;
33279;SDS011;20403;43.114;12.434;2023-02-01T07:47:31;29.27;;;14.98;;
33279;SDS011;20403;43.114;12.434;2023-02-01T07:49:57;30.13;;;14.07;;
33279;SDS011;20403;43.114;12.434;2023-02-01T07:52:22;28.92;;;13.52;;
33279;SDS011;20403;43.114;12.434;2023-02-01T07:54:48;30.10;;;12.35;;
33279;SDS011;20403;43.114;12.434;2023-02-01T07:57:13;36.03;;;14.68;;
33279;SDS011;20403;43.114;12.434;2023-02-01T07:59:39;34.75;;;14.10;;
33279;SDS011;20403;43.114;12.434;2023-02-01T08:02:24;28.17;;;13.18;;
33279;SDS011;20403;43.114;12.434;2023-02-01T08:04:50;29.58;;;14.68;;
33279;SDS011;20403;43.114;12.434;2023-02-01T08:07:15;32.00;;;14.80;;
33279;SDS011;20403;43.114;12.434;2023-02-01T08:09:40;39.85;;;18.02;;
33279;SDS011;20403;43.114;12.434;2023-02-01T08:12:06;48.90;;;16.65;;
33279;SDS011;20403;43.114;12.434;2023-02-01T08:14:31;43.75;;;15.75;;
33279;SDS011;20403;43.114;12.434;2023-02-01T08:16:57;35.05;;;15.75;;
33279;SDS011;20403;43.114;12.434;2023-02-01T08:19:22;37.83;;;19.58;;
33279;SDS011;20403;43.114;12.434;2023-02-01T08:21:47;35.72;;;16.90;;
33279;SDS011;20403;43.114;12.434;2023-02-01T08:24:13;40.92;;;15.88;;
33279;SDS011;20403;43.114;12.434;2023-02-01T08:26:39;39.72;;;17.88;;
33279;SDS011;20403;43.114;12.434;2023-02-01T08:29:05;37.38;;;15.65;;
33279;SDS011;20403;43.114;12.434;2023-02-01T08:31:33;47.10;;;17.20;;
33279;SDS011;20403;43.114;12.434;2023-02-01T08:34:00;37.00;;;17.65;;
33279;SDS011;20403;43.114;12.434;2023-02-01T08:36:27;33.67;;;15.68;;
33279;SDS011;20403;43.114;12.434;2023-02-01T08:38:54;33.00;;;16.90;;
33279;SDS011;20403;43.114;12.434;2023-02-01T08:41:21;32.75;;;15.95;;
33279;SDS011;20403;43.114;12.434;2023-02-01T08:43:48;33.92;;;15.43;;
33279;SDS011;20403;43.114;12.434;2023-02-01T08:46:14;33.20;;;14.60;;
33279;SDS011;20403;43.114;12.434;2023-02-01T08:48:40;27.65;;;14.45;;
33279;SDS011;20403;43.114;12.434;2023-02-01T08:51:07;32.10;;;15.35;;
33279;SDS011;20403;43.114;12.434;2023-02-01T08:53:34;39.20;;;16.48;;
33279;SDS011;20403;43.114;12.434;2023-02-01T08:56:01;36.40;;;17.02;;
33279;SDS011;20403;43.114;12.434;2023-02-01T08:58:26;34.58;;;16.48;;
33279;SDS011;20403;43.114;12.434;2023-02-01T09:00:52;34.38;;;17.92;;
33279;SDS011;20403;43.114;12.434;2023-02-01T09:03:18;36.85;;;16.60;;
33279;SDS011;20403;43.114;12.434;2023-02-01T09:05:43;28.15;;;15.88;;
33279;SDS011;20403;43.114;12.434;2023-02-01T09:08:10;31.33;;;16.58;;
33279;SDS011;20403;43.114;12.434;2023-02-01T09:10:37;39.42;;;16.63;;
33279;SDS011;20403;43.114;12.434;2023-02-01T09:13:02;37.88;;;19.20;;
33279;SDS011;20403;43.114;12.434;2023-02-01T09:15:28;35.58;;;18.02;;
33279;SDS011;20403;43.114;12.434;2023-02-01T09:17:53;41.60;;;17.65;;
33279;SDS011;20403;43.114;12.434;2023-02-01T09:20:18;32.15;;;16.90;;
33279;SDS011;20403;43.114;12.434;2023-02-01T09:22:45;43.00;;;20.00;;
33279;SDS011;20403;43.114;12.434;2023-02-01T09:25:11;41.70;;;21.77;;
33279;SDS011;20403;43.114;12.434;2023-02-01T09:27:36;43.75;;;20.50;;
33279;SDS011;20403;43.114;12.434;2023-02-01T09:30:02;40.60;;;17.80;;
33279;SDS011;20403;43.114;12.434;2023-02-01T09:32:29;43.05;;;17.63;;
33279;SDS011;20403;43.114;12.434;2023-02-01T09:34:55;33.45;;;17.42;;
33279;SDS011;20403;43.114;12.434;2023-02-01T09:37:20;34.78;;;17.52;;
33279;SDS011;20403;43.114;12.434;2023-02-01T09:39:45;49.47;;;19.60;;
33279;SDS011;20403;43.114;12.434;2023-02-01T09:45:14;40.95;;;18.65;;
33279;SDS011;20403;43.114;12.434;2023-02-01T09:48:02;33.95;;;19.02;;
33279;SDS011;20403;43.114;12.434;2023-02-01T09:50:38;37.33;;;18.50;;
33279;SDS011;20403;43.114;12.434;2023-02-01T09:55:36;40.20;;;18.17;;
33279;SDS011;20403;43.114;12.434;2023-02-01T10:00:38;40.80;;;18.58;;
33279;SDS011;20403;43.114;12.434;2023-02-01T10:03:05;46.10;;;18.92;;
33279;SDS011;20403;43.114;12.434;2023-02-01T10:10:57;47.00;;;19.10;;
33279;SDS011;20403;43.114;12.434;2023-02-01T10:13:57;52.65;;;24.05;;
33279;SDS011;20403;43.114;12.434;2023-02-01T10:21:58;51.05;;;20.17;;
33279;SDS011;20403;43.114;12.434;2023-02-01T10:29:39;40.72;;;18.15;;
33279;SDS011;20403;43.114;12.434;2023-02-01T10:32:11;55.00;;;20.10;;
33279;SDS011;20403;43.114;12.434;2023-02-01T10:34:39;46.55;;;21.05;;
33279;SDS011;20403;43.114;12.434;2023-02-01T10:39:43;51.30;;;22.52;;
33279;SDS011;20403;43.114;12.434;2023-02-01T10:42:09;43.15;;;21.10;;
33279;SDS011;20403;43.114;12.434;2023-02-01T10:44:35;48.13;;;21.80;;
33279;SDS011;20403;43.114;12.434;2023-02-01T10:47:09;40.15;;;19.08;;
33279;SDS011;20403;43.114;12.434;2023-02-01T10:54:56;42.10;;;19.70;;
33279;SDS011;20403;43.114;12.434;2023-02-01T10:57:58;33.67;;;13.85;;
33279;SDS011;20403;43.114;12.434;2023-02-01T11:02:51;29.70;;;15.43;;
33279;SDS011;20403;43.114;12.434;2023-02-01T11:05:17;30.30;;;14.77;;
33279;SDS011;20403;43.114;12.434;2023-02-01T11:07:46;54.05;;;17.92;;
33279;SDS011;20403;43.114;12.434;2023-02-01T11:12:58;28.63;;;14.15;;
33279;SDS011;20403;43.114;12.434;2023-02-01T11:15:27;29.90;;;13.43;;
33279;SDS011;20403;43.114;12.434;2023-02-01T11:17:52;36.13;;;14.02;;
33279;SDS011;20403;43.114;12.434;2023-02-01T11:23:11;50.13;;;22.65;;
33279;SDS011;20403;43.114;12.434;2023-02-01T11:25:47;83.82;;;32.80;;
33279;SDS011;20403;43.114;12.434;2023-02-01T11:28:23;34.03;;;15.77;;
33279;SDS011;20403;43.114;12.434;2023-02-01T11:30:54;36.90;;;15.18;;
33279;SDS011;20403;43.114;12.434;2023-02-01T11:33:30;32.58;;;15.52;;
33279;SDS011;20403;43.114;12.434;2023-02-01T11:36:00;36.97;;;16.73;;
33279;SDS011;20403;43.114;12.434;2023-02-01T11:38:33;34.22;;;17.23;;
33279;SDS011;20403;43.114;12.434;2023-02-01T11:41:14;31.70;;;13.15;;
33279;SDS011;20403;43.114;12.434;2023-02-01T11:44:15;26.35;;;13.18;;
33279;SDS011;20403;43.114;12.434;2023-02-01T11:46:45;32.20;;;13.68;;
33279;SDS011;20403;43.114;12.434;2023-02-01T11:49:25;41.38;;;17.52;;
33279;SDS011;20403;43.114;12.434;2023-02-01T12:00:20;27.10;;;12.70;;
33279;SDS011;20403;43.114;12.434;2023-02-01T12:02:58;26.52;;;14.02;;
33279;SDS011;20403;43.114;12.434;2023-02-01T12:08:31;25.98;;;14.80;;
33279;SDS011;20403;43.114;12.434;2023-02-01T12:16:43;29.15;;;15.40;;
33279;SDS011;20403;43.114;12.434;2023-02-01T12:21:49;26.75;;;13.15;;
33279;SDS011;20403;43.114;12.434;2023-02-01T12:38:15;26.95;;;13.65;;
33279;SDS011;20403;43.114;12.434;2023-02-01T12:43:58;33.67;;;15.13;;
33279;SDS011;20403;43.114;12.434;2023-02-01T12:49:27;33.67;;;15.13;;
33279;SDS011;20403;43.114;12.434;2023-02-01T12:52:18;27.05;;;14.68;;
33279;SDS011;20403;43.114;12.434;2023-02-01T12:54:58;31.27;;;14.20;;
33279;SDS011;20403;43.114;12.434;2023-02-01T12:57:37;27.63;;;13.82;;
33279;SDS011;20403;43.114;12.434;2023-02-01T13:05:50;30.52;;;14.15;;
33279;SDS011;20403;43.114;12.434;2023-02-01T13:08:23;30.70;;;14.55;;
33279;SDS011;20403;43.114;12.434;2023-02-01T13:10:57;27.43;;;13.83;;
33279;SDS011;20403;43.114;12.434;2023-02-01T13:16:20;36.72;;;14.05;;
33279;SDS011;20403;43.114;12.434;2023-02-01T13:18:52;31.50;;;13.85;;
33279;SDS011;20403;43.114;12.434;2023-02-01T13:21:25;35.53;;;15.02;;
33279;SDS011;20403;43.114;12.434;2023-02-01T13:23:55;27.35;;;13.60;;
33279;SDS011;20403;43.114;12.434;2023-02-01T13:26:21;27.48;;;13.25;;
33279;SDS011;20403;43.114;12.434;2023-02-01T13:39:48;24.83;;;11.98;;
33279;SDS011;20403;43.114;12.434;2023-02-01T13:42:17;32.35;;;12.80;;
33279;SDS011;20403;43.114;12.434;2023-02-01T13:44:45;24.70;;;11.82;;
33279;SDS011;20403;43.114;12.434;2023-02-01T13:49:42;31.45;;;12.80;;
33279;SDS011;20403;43.114;12.434;2023-02-01T13:52:19;26.33;;;13.10;;
33279;SDS011;20403;43.114;12.434;2023-02-01T13:55:00;31.23;;;13.80;;
33279;SDS011;20403;43.114;12.434;2023-02-01T13:57:45;31.80;;;15.15;;
33279;SDS011;20403;43.114;12.434;2023-02-01T14:11:30;25.05;;;13.25;;
33279;SDS011;20403;43.114;12.434;2023-02-01T14:13:36;27.40;;;11.82;;
33279;SDS011;20403;43.114;12.434;2023-02-01T14:23:40;25.17;;;13.20;;
33279;SDS011;20403;43.114;12.434;2023-02-01T14:26:54;23.98;;;12.93;;
33279;SDS011;20403;43.114;12.434;2023-02-01T14:32:02;46.78;;;16.58;;
33279;SDS011;20403;43.114;12.434;2023-02-01T14:40:32;35.30;;;17.42;;
33279;SDS011;20403;43.114;12.434;2023-02-01T14:58:16;50.30;;;22.70;;
33279;SDS011;20403;43.114;12.434;2023-02-01T15:09:03;43.63;;;20.85;;
33279;SDS011;20403;43.114;12.434;2023-02-01T15:11:52;46.05;;;20.63;;
33279;SDS011;20403;43.114;12.434;2023-02-01T15:14:43;46.58;;;18.35;;
33279;SDS011;20403;43.114;12.434;2023-02-01T15:17:26;27.88;;;13.48;;
33279;SDS011;20403;43.114;12.434;2023-02-01T15:22:26;28.67;;;12.75;;
33279;SDS011;20403;43.114;12.434;2023-02-01T15:24:57;29.55;;;12.73;;
33279;SDS011;20403;43.114;12.434;2023-02-01T15:27:24;31.95;;;12.45;;
33279;SDS011;20403;43.114;12.434;2023-02-01T15:29:51;24.88;;;11.25;;
33279;SDS011;20403;43.114;12.434;2023-02-01T15:32:29;28.25;;;11.38;;
33279;SDS011;20403;43.114;12.434;2023-02-01T15:34:59;23.33;;;10.88;;
33279;SDS011;20403;43.114;12.434;2023-02-01T15:37:26;22.63;;;9.38;;
33279;SDS011;20403;43.114;12.434;2023-02-01T15:42:57;22.40;;;8.40;;
33279;SDS011;20403;43.114;12.434;2023-02-01T15:45:27;21.92;;;7.28;;
33279;SDS011;20403;43.114;12.434;2023-02-01T15:47:57;22.98;;;8.27;;
33279;SDS011;20403;43.114;12.434;2023-02-01T15:50:23;25.90;;;7.80;;
33279;SDS011;20403;43.114;12.434;2023-02-01T15:52:50;17.80;;;7.03;;
33279;SDS011;20403;43.114;12.434;2023-02-01T15:55:18;26.77;;;8.38;;
33279;SDS011;20403;43.114;12.434;2023-02-01T15:57:47;16.70;;;7.97;;
33279;SDS011;20403;43.114;12.434;2023-02-01T16:00:24;20.35;;;8.63;;
33279;SDS011;20403;43.114;12.434;2023-02-01T16:03:35;30.90;;;10.15;;
33279;SDS011;20403;43.114;12.434;2023-02-01T16:06:06;21.45;;;11.07;;
33279;SDS011;20403;43.114;12.434;2023-02-01T16:08:34;31.52;;;12.30;;
33279;SDS011;20403;43.114;12.434;2023-02-01T16:15:58;35.80;;;15.45;;
33279;SDS011;20403;43.114;12.434;2023-02-01T16:18:24;33.97;;;17.38;;
33279;SDS011;20403;43.114;12.434;2023-02-01T16:20:49;46.13;;;21.30;;
33279;SDS011;20403;43.114;12.434;2023-02-01T16:23:15;51.22;;;22.92;;
33279;SDS011;20403;43.114;12.434;2023-02-01T16:25:40;49.10;;;20.30;;
33279;SDS011;20403;43.114;12.434;2023-02-01T16:28:06;45.42;;;22.55;;
33279;SDS011;20403;43.114;12.434;2023-02-01T16:30:32;53.45;;;24.10;;
33279;SDS011;20403;43.114;12.434;2023-02-01T16:32:58;47.92;;;23.13;;
33279;SDS011;20403;43.114;12.434;2023-02-01T16:38:04;46.60;;;22.33;;
33279;SDS011;20403;43.114;12.434;2023-02-01T16:40:37;44.45;;;20.85;;
33279;SDS011;20403;43.114;12.434;2023-02-01T16:43:13;42.72;;;20.90;;
33279;SDS011;20403;43.114;12.434;2023-02-01T16:45:40;46.28;;;22.05;;
33279;SDS011;20403;43.114;12.434;2023-02-01T16:48:10;46.72;;;22.17;;
33279;SDS011;20403;43.114;12.434;2023-02-01T16:50:45;54.15;;;23.60;;
33279;SDS011;20403;43.114;12.434;2023-02-01T16:53:12;55.35;;;23.25;;
33279;SDS011;20403;43.114;12.434;2023-02-01T16:55:39;47.58;;;21.67;;
33279;SDS011;20403;43.114;12.434;2023-02-01T16:58:04;52.60;;;22.50;;
33279;SDS011;20403;43.114;12.434;2023-02-01T17:00:30;65.28;;;23.40;;
33279;SDS011;20403;43.114;12.434;2023-02-01T17:02:58;59.58;;;25.92;;
33279;SDS011;20403;43.114;12.434;2023-02-01T17:05:23;64.07;;;26.00;;
33279;SDS011;20403;43.114;12.434;2023-02-01T17:07:50;66.57;;;29.17;;
33279;SDS011;20403;43.114;12.434;2023-02-01T17:10:25;62.15;;;25.85;;
33279;SDS011;20403;43.114;12.434;2023-02-01T17:12:52;67.10;;;26.02;;
33279;SDS011;20403;43.114;12.434;2023-02-01T17:15:17;60.08;;;25.45;;
33279;SDS011;20403;43.114;12.434;2023-02-01T17:17:42;61.35;;;25.65;;
33279;SDS011;20403;43.114;12.434;2023-02-01T17:20:26;58.15;;;24.25;;
33279;SDS011;20403;43.114;12.434;2023-02-01T17:22:56;48.22;;;20.13;;
33279;SDS011;20403;43.114;12.434;2023-02-01T17:25:21;47.13;;;19.38;;
33279;SDS011;20403;43.114;12.434;2023-02-01T17:27:47;46.08;;;17.17;;
33279;SDS011;20403;43.114;12.434;2023-02-01T17:30:13;39.53;;;17.23;;
33279;SDS011;20403;43.114;12.434;2023-02-01T17:32:39;43.83;;;16.00;;
33279;SDS011;20403;43.114;12.434;2023-02-01T17:35:08;33.67;;;15.48;;
33279;SDS011;20403;43.114;12.434;2023-02-01T17:37:46;42.50;;;16.92;;